sensor_id;sensor_type;location;lat;lon;timestamp;pressure;altitude;pressure_sealevel;temperature;humidity
60307;BME280;46155;52.364;6.580;2023-10-09T03:00:48;101529.63;;;14.35;100.00
60307;BME280;46155;52.364;6.580;2023-10-09T03:03:14;101528.13;;;14.40;100.00
60307;BME280;46155;52.364;6.580;2023-10-09T03:05:44;101521.31;;;14.43;100.00
60307;BME280;46155;52.364;6.580;2023-10-09T03:08:09;101514.13;;;14.41;100.00
60307;BME280;46155;52.364;6.580;2023-10-09T03:10:37;101509.72;;;14.41;100.00
60307;BME280;46155;52.364;6.580;2023-10-09T03:13:04;101505.22;;;14.39;100.00
60307;BME280;46155;52.364;6.580;2023-10-09T03:15:31;101503.72;;;14.44;100.00
60307;BME280;46155;52.364;6.580;2023-10-09T03:18:01;101507.38;;;14.46;100.00
60307;BME280;46155;52.364;6.580;2023-10-09T03:20:27;101490.75;;;14.49;100.00
60307;BME280;46155;52.364;6.580;2023-10-09T03:22:55;101488.31;;;14.52;100.00
60307;BME280;46155;52.364;6.580;2023-10-09T03:25:21;101482.03;;;14.50;100.00
60307;BME280;46155;52.364;6.580;2023-10-09T03:27:46;101488.03;;;14.47;100.00
60307;BME280;46155;52.364;6.580;2023-10-09T03:30:16;101497.06;;;14.51;100.00
60307;BME280;46155;52.364;6.580;2023-10-09T03:32:56;101492.75;;;14.53;100.00
60307;BME280;46155;52.364;6.580;2023-10-09T03:35:22;101487.13;;;14.46;100.00
60307;BME280;46155;52.364;6.580;2023-10-09T03:37:55;101490.59;;;14.45;100.00
60307;BME280;46155;52.364;6.580;2023-10-09T03:40:43;101487.94;;;14.45;100.00
60307;BME280;46155;52.364;6.580;2023-10-09T03:43:12;101498.13;;;14.54;100.00
60307;BME280;46155;52.364;6.580;2023-10-09T03:45:39;101491.13;;;14.55;100.00
60307;BME280;46155;52.364;6.580;2023-10-09T03:48:11;101490.47;;;14.59;100.00
60307;BME280;46155;52.364;6.580;2023-10-09T03:50:52;101495.13;;;14.63;100.00
60307;BME280;46155;52.364;6.580;2023-10-09T03:53:34;101496.13;;;14.65;100.00
60307;BME280;46155;52.364;6.580;2023-10-09T03:56:02;101489.84;;;14.63;100.00
60307;BME280;46155;52.364;6.580;2023-10-09T03:58:31;101497.09;;;14.67;100.00
60307;BME280;46155;52.364;6.580;2023-10-09T04:00:59;101495.31;;;14.66;100.00
60307;BME280;46155;52.364;6.580;2023-10-09T04:03:24;101497.09;;;14.67;100.00
60307;BME280;46155;52.364;6.580;2023-10-09T04:05:49;101500.84;;;14.71;100.00
60307;BME280;46155;52.364;6.580;2023-10-09T04:08:17;101507.88;;;14.70;100.00
60307;BME280;46155;52.364;6.580;2023-10-09T04:10:45;101500.91;;;14.72;100.00
60307;BME280;46155;52.364;6.580;2023-10-09T04:13:18;101501.06;;;14.75;100.00
60307;BME280;46155;52.364;6.580;2023-10-09T04:15:50;101504.56;;;14.74;100.00
60307;BME280;46155;52.364;6.580;2023-10-09T04:18:19;101512.59;;;14.76;100.00
60307;BME280;46155;52.364;6.580;2023-10-09T04:20:45;101515.22;;;14.76;100.00
60307;BME280;46155;52.364;6.580;2023-10-09T04:23:29;101508.94;;;14.74;100.00
60307;BME280;46155;52.364;6.580;2023-10-09T04:26:21;101506.38;;;14.75;100.00
60307;BME280;46155;52.364;6.580;2023-10-09T04:28:46;101508.19;;;14.76;100.00
60307;BME280;46155;52.364;6.580;2023-10-09T04:31:16;101502.91;;;14.76;100.00
60307;BME280;46155;52.364;6.580;2023-10-09T04:33:43;101495.13;;;14.79;100.00
60307;BME280;46155;52.364;6.580;2023-10-09T04:36:19;101498.13;;;14.86;100.00
60307;BME280;46155;52.364;6.580;2023-10-09T04:38:45;101495.31;;;14.83;100.00
60307;BME280;46155;52.364;6.580;2023-10-09T04:41:29;101507.03;;;14.88;100.00
60307;BME280;46155;52.364;6.580;2023-10-09T04:43:58;101506.22;;;14.89;100.00
60307;BME280;46155;52.364;6.580;2023-10-09T04:46:43;101509.94;;;14.92;100.00
60307;BME280;46155;52.364;6.580;2023-10-09T04:49:27;101510.66;;;14.90;100.00
60307;BME280;46155;52.364;6.580;2023-10-09T04:51:55;101514.41;;;14.93;100.00
60307;BME280;46155;52.364;6.580;2023-10-09T04:54:30;101510.94;;;14.94;100.00
60307;BME280;46155;52.364;6.580;2023-10-09T04:57:04;101524.16;;;14.94;100.00
60307;BME280;46155;52.364;6.580;2023-10-09T04:59:42;101531.09;;;14.92;100.00
60307;BME280;46155;52.364;6.580;2023-10-09T05:02:12;101533.81;;;14.94;100.00
60307;BME280;46155;52.364;6.580;2023-10-09T05:04:44;101518.28;;;15.00;100.00
60307;BME280;46155;52.364;6.580;2023-10-09T05:07:12;101527.03;;;14.99;100.00
60307;BME280;46155;52.364;6.580;2023-10-09T05:09:56;101516.78;;;15.05;100.00
60307;BME280;46155;52.364;6.580;2023-10-09T05:12:31;101506.41;;;15.08;100.00
60307;BME280;46155;52.364;6.580;2023-10-09T05:14:56;101507.47;;;15.12;100.00
60307;BME280;46155;52.364;6.580;2023-10-09T05:17:48;101510.25;;;15.15;100.00
60307;BME280;46155;52.364;6.580;2023-10-09T05:20:21;101512.81;;;15.13;100.00
60307;BME280;46155;52.364;6.580;2023-10-09T05:22:52;101521.69;;;15.14;100.00
60307;BME280;46155;52.364;6.580;2023-10-09T05:25:27;101533.00;;;15.11;100.00
60307;BME280;46155;52.364;6.580;2023-10-09T05:28:16;101533.16;;;15.14;100.00
60307;BME280;46155;52.364;6.580;2023-10-09T05:30:56;101536.63;;;15.13;100.00
60307;BME280;46155;52.364;6.580;2023-10-09T05:33:36;101539.28;;;15.30;100.00
60307;BME280;46155;52.364;6.580;2023-10-09T05:36:05;101544.88;;;15.36;100.00
60307;BME280;46155;52.364;6.580;2023-10-09T05:38:56;101546.13;;;15.43;100.00
60307;BME280;46155;52.364;6.580;2023-10-09T05:41:42;101544.31;;;15.42;100.00
60307;BME280;46155;52.364;6.580;2023-10-09T05:44:18;101550.53;;;15.42;100.00
60307;BME280;46155;52.364;6.580;2023-10-09T05:47:03;101543.47;;;15.59;100.00
60307;BME280;46155;52.364;6.580;2023-10-09T05:49:46;101548.75;;;15.59;100.00
60307;BME280;46155;52.364;6.580;2023-10-09T05:52:13;101551.06;;;15.53;100.00
60307;BME280;46155;52.364;6.580;2023-10-09T05:54:58;101555.97;;;15.45;100.00
60307;BME280;46155;52.364;6.580;2023-10-09T05:57:41;101558.53;;;15.44;100.00
60307;BME280;46155;52.364;6.580;2023-10-09T06:00:23;101554.00;;;15.41;100.00
60307;BME280;46155;52.364;6.580;2023-10-09T06:03:07;101546.88;;;15.40;100.00
60307;BME280;46155;52.364;6.580;2023-10-09T06:05:48;101548.69;;;15.41;100.00
60307;BME280;46155;52.364;6.580;2023-10-09T06:08:23;101546.13;;;15.43;100.00
60307;BME280;46155;52.364;6.580;2023-10-09T06:11:14;101544.16;;;15.39;100.00
60307;BME280;46155;52.364;6.580;2023-10-09T06:14:01;101547.53;;;15.36;100.00
60307;BME280;46155;52.364;6.580;2023-10-09T06:16:30;101555.63;;;15.39;100.00
60307;BME280;46155;52.364;6.580;2023-10-09T06:19:12;101565.22;;;15.37;100.00
60307;BME280;46155;52.364;6.580;2023-10-09T06:21:41;101553.06;;;15.41;100.00
60307;BME280;46155;52.364;6.580;2023-10-09T06:26:46;101547.69;;;15.39;100.00
60307;BME280;46155;52.364;6.580;2023-10-09T06:29:30;101537.28;;;15.42;100.00
60307;BME280;46155;52.364;6.580;2023-10-09T06:32:17;101528.66;;;15.46;100.00
60307;BME280;46155;52.364;6.580;2023-10-09T06:34:56;101540.84;;;15.43;100.00
60307;BME280;46155;52.364;6.580;2023-10-09T06:37:44;101562.91;;;15.43;100.00
60307;BME280;46155;52.364;6.580;2023-10-09T06:40:32;101567.38;;;15.44;100.00
60307;BME280;46155;52.364;6.580;2023-10-09T06:43:16;101567.59;;;15.49;100.00
60307;BME280;46155;52.364;6.580;2023-10-09T06:46:04;101554.38;;;15.49;100.00
60307;BME280;46155;52.364;6.580;2023-10-09T06:48:48;101568.84;;;15.56;100.00
60307;BME280;46155;52.364;6.580;2023-10-09T06:51:23;101560.91;;;15.56;100.00
60307;BME280;46155;52.364;6.580;2023-10-09T06:56:25;101560.84;;;15.54;100.00
60307;BME280;46155;52.364;6.580;2023-10-09T06:59:03;101561.06;;;15.59;100.00
60307;BME280;46155;52.364;6.580;2023-10-09T07:01:39;101558.41;;;15.59;100.00
60307;BME280;46155;52.364;6.580;2023-10-09T07:04:08;101565.53;;;15.60;100.00
60307;BME280;46155;52.364;6.580;2023-10-09T07:06:52;101566.44;;;15.60;100.00
60307;BME280;46155;52.364;6.580;2023-10-09T07:09:18;101571.00;;;15.63;100.00
60307;BME280;46155;52.364;6.580;2023-10-09T07:11:48;101567.59;;;15.65;100.00
60307;BME280;46155;52.364;6.580;2023-10-09T07:14:15;101554.59;;;15.70;100.00
60307;BME280;46155;52.364;6.580;2023-10-09T07:19:29;101536.59;;;15.79;100.00
60307;BME280;46155;52.364;6.580;2023-10-09T07:22:20;101531.38;;;15.81;100.00
60307;BME280;46155;52.364;6.580;2023-10-09T07:24:49;101545.16;;;15.75;100.00
60307;BME280;46155;52.364;6.580;2023-10-09T07:27:20;101548.06;;;15.80;100.00
60307;BME280;46155;52.364;6.580;2023-10-09T07:30:06;101545.50;;;15.81;100.00
60307;BME280;46155;52.364;6.580;2023-10-09T07:33:05;101539.53;;;15.86;100.00
60307;BME280;46155;52.364;6.580;2023-10-09T07:35:39;101554.75;;;15.90;100.00
60307;BME280;46155;52.364;6.580;2023-10-09T07:38:11;101565.03;;;15.83;100.00
60307;BME280;46155;52.364;6.580;2023-10-09T07:40:40;101572.28;;;15.88;100.00
60307;BME280;46155;52.364;6.580;2023-10-09T07:43:28;101577.44;;;15.84;100.00
60307;BME280;46155;52.364;6.580;2023-10-09T07:46:02;101581.81;;;15.84;100.00
60307;BME280;46155;52.364;6.580;2023-10-09T07:48:27;101581.16;;;15.88;100.00
60307;BME280;46155;52.364;6.580;2023-10-09T07:51:12;101586.84;;;15.96;100.00
60307;BME280;46155;52.364;6.580;2023-10-09T07:53:38;101567.31;;;15.94;100.00
60307;BME280;46155;52.364;6.580;2023-10-09T07:56:12;101577.25;;;15.98;100.00
60307;BME280;46155;52.364;6.580;2023-10-09T07:58:46;101576.38;;;15.99;100.00
60307;BME280;46155;52.364;6.580;2023-10-09T08:01:12;101570.34;;;16.01;100.00
60307;BME280;46155;52.364;6.580;2023-10-09T08:03:42;101571.28;;;16.02;100.00
60307;BME280;46155;52.364;6.580;2023-10-09T08:06:11;101564.16;;;16.01;100.00
60307;BME280;46155;52.364;6.580;2023-10-09T08:08:56;101554.59;;;16.05;100.00
60307;BME280;46155;52.364;6.580;2023-10-09T08:11:40;101542.97;;;16.01;100.00
60307;BME280;46155;52.364;6.580;2023-10-09T08:14:06;101538.56;;;16.01;100.00
60307;BME280;46155;52.364;6.580;2023-10-09T08:16:46;101543.88;;;16.01;100.00
60307;BME280;46155;52.364;6.580;2023-10-09T08:19:11;101544.59;;;15.99;100.00
60307;BME280;46155;52.364;6.580;2023-10-09T08:21:58;101553.72;;;16.04;100.00
60307;BME280;46155;52.364;6.580;2023-10-09T08:24:52;101556.44;;;16.06;100.00
60307;BME280;46155;52.364;6.580;2023-10-09T08:27:27;101557.50;;;16.09;100.00
60307;BME280;46155;52.364;6.580;2023-10-09T08:29:56;101556.75;;;16.12;100.00
60307;BME280;46155;52.364;6.580;2023-10-09T08:32:56;101544.72;;;16.18;100.00
60307;BME280;46155;52.364;6.580;2023-10-09T08:35:34;101510.41;;;16.22;100.00
60307;BME280;46155;52.364;6.580;2023-10-09T08:38:20;101506.13;;;16.24;100.00
60307;BME280;46155;52.364;6.580;2023-10-09T08:40:50;101515.88;;;16.25;100.00
60307;BME280;46155;52.364;6.580;2023-10-09T08:43:19;101529.28;;;16.28;100.00
60307;BME280;46155;52.364;6.580;2023-10-09T08:45:55;101550.69;;;16.32;100.00
60307;BME280;46155;52.364;6.580;2023-10-09T08:48:27;101554.41;;;16.36;100.00
60307;BME280;46155;52.364;6.580;2023-10-09T08:50:55;101555.53;;;16.41;100.00
60307;BME280;46155;52.364;6.580;2023-10-09T08:53:21;101562.66;;;16.42;100.00
60307;BME280;46155;52.364;6.580;2023-10-09T08:55:47;101577.59;;;16.40;100.00
60307;BME280;46155;52.364;6.580;2023-10-09T08:58:16;101580.31;;;16.42;100.00
60307;BME280;46155;52.364;6.580;2023-10-09T09:00:47;101590.31;;;16.47;100.00
60307;BME280;46155;52.364;6.580;2023-10-09T09:03:16;101607.94;;;16.47;100.00
60307;BME280;46155;52.364;6.580;2023-10-09T09:05:46;101588.69;;;16.51;100.00
60307;BME280;46155;52.364;6.580;2023-10-09T09:08:24;101584.47;;;16.55;100.00
60307;BME280;46155;52.364;6.580;2023-10-09T09:13:37;101612.78;;;16.56;100.00
60307;BME280;46155;52.364;6.580;2023-10-09T09:16:02;101633.97;;;16.56;100.00
60307;BME280;46155;52.364;6.580;2023-10-09T09:18:28;101646.41;;;16.57;100.00
60307;BME280;46155;52.364;6.580;2023-10-09T09:21:17;101657.16;;;16.60;100.00
60307;BME280;46155;52.364;6.580;2023-10-09T09:24:13;101633.56;;;16.64;100.00
60307;BME280;46155;52.364;6.580;2023-10-09T09:26:43;101630.09;;;16.67;100.00
60307;BME280;46155;52.364;6.580;2023-10-09T09:29:12;101632.09;;;16.71;100.00
60307;BME280;46155;52.364;6.580;2023-10-09T09:31:54;101649.75;;;16.70;100.00
60307;BME280;46155;52.364;6.580;2023-10-09T09:34:20;101643.63;;;16.72;100.00
60307;BME280;46155;52.364;6.580;2023-10-09T09:36:55;101643.53;;;16.70;100.00
60307;BME280;46155;52.364;6.580;2023-10-09T09:39:22;101632.25;;;16.74;100.00
60307;BME280;46155;52.364;6.580;2023-10-09T09:41:57;101635.06;;;16.77;100.00
60307;BME280;46155;52.364;6.580;2023-10-09T09:44:30;101631.72;;;16.81;100.00
60307;BME280;46155;52.364;6.580;2023-10-09T09:46:59;101633.50;;;16.82;100.00
60307;BME280;46155;52.364;6.580;2023-10-09T09:49:27;101639.19;;;16.89;100.00
60307;BME280;46155;52.364;6.580;2023-10-09T09:51:58;101636.34;;;16.85;100.00
60307;BME280;46155;52.364;6.580;2023-10-09T09:54:26;101632.00;;;16.87;100.00
60307;BME280;46155;52.364;6.580;2023-10-09T09:56:54;101629.47;;;16.89;100.00
60307;BME280;46155;52.364;6.580;2023-10-09T09:59:25;101627.63;;;16.88;100.00
60307;BME280;46155;52.364;6.580;2023-10-09T10:01:55;101624.44;;;16.95;100.00
60307;BME280;46155;52.364;6.580;2023-10-09T10:04:26;101636.13;;;16.99;100.00
60307;BME280;46155;52.364;6.580;2023-10-09T10:06:54;101629.13;;;17.01;100.00
60307;BME280;46155;52.364;6.580;2023-10-09T10:09:37;101633.06;;;17.09;100.00
60307;BME280;46155;52.364;6.580;2023-10-09T10:12:07;101629.72;;;17.13;100.00
60307;BME280;46155;52.364;6.580;2023-10-09T10:14:55;101635.16;;;17.16;100.00
60307;BME280;46155;52.364;6.580;2023-10-09T10:20:24;101642.56;;;17.24;100.00
60307;BME280;46155;52.364;6.580;2023-10-09T10:22:51;101648.75;;;17.23;100.00
60307;BME280;46155;52.364;6.580;2023-10-09T10:30:46;101637.25;;;17.24;100.00
60307;BME280;46155;52.364;6.580;2023-10-09T10:33:12;101636.72;;;17.31;100.00
60307;BME280;46155;52.364;6.580;2023-10-09T10:35:47;101639.38;;;17.31;100.00
60307;BME280;46155;52.364;6.580;2023-10-09T10:38:33;101641.41;;;17.36;100.00
60307;BME280;46155;52.364;6.580;2023-10-09T10:43:37;101644.84;;;17.34;100.00
60307;BME280;46155;52.364;6.580;2023-10-09T10:46:15;101643.03;;;17.33;100.00
60307;BME280;46155;52.364;6.580;2023-10-09T10:48:52;101646.81;;;17.38;100.00
60307;BME280;46155;52.364;6.580;2023-10-09T10:51:44;101657.56;;;17.41;100.00
60307;BME280;46155;52.364;6.580;2023-10-09T10:54:21;101648.03;;;17.46;100.00
60307;BME280;46155;52.364;6.580;2023-10-09T10:57:02;101647.97;;;17.45;100.00
60307;BME280;46155;52.364;6.580;2023-10-09T10:59:39;101644.56;;;17.47;100.00
60307;BME280;46155;52.364;6.580;2023-10-09T11:02:11;101648.28;;;17.51;100.00
60307;BME280;46155;52.364;6.580;2023-10-09T11:04:36;101644.00;;;17.54;100.00
60307;BME280;46155;52.364;6.580;2023-10-09T11:07:09;101645.81;;;17.55;100.00
60307;BME280;46155;52.364;6.580;2023-10-09T11:09:54;101660.06;;;17.58;100.00
60307;BME280;46155;52.364;6.580;2023-10-09T11:12:28;101659.44;;;17.63;100.00
60307;BME280;46155;52.364;6.580;2023-10-09T11:15:34;101658.41;;;17.60;100.00
60307;BME280;46155;52.364;6.580;2023-10-09T11:18:10;101649.63;;;17.61;100.00
60307;BME280;46155;52.364;6.580;2023-10-09T11:20:51;101638.06;;;17.60;100.00
60307;BME280;46155;52.364;6.580;2023-10-09T11:23:23;101621.25;;;17.60;100.00
60307;BME280;46155;52.364;6.580;2023-10-09T11:26:01;101624.84;;;17.62;100.00
60307;BME280;46155;52.364;6.580;2023-10-09T11:28:46;101628.50;;;17.64;100.00
60307;BME280;46155;52.364;6.580;2023-10-09T11:31:38;101628.00;;;17.72;100.00
60307;BME280;46155;52.364;6.580;2023-10-09T11:34:18;101621.63;;;17.69;100.00
60307;BME280;46155;52.364;6.580;2023-10-09T11:36:54;101639.66;;;17.76;100.00
60307;BME280;46155;52.364;6.580;2023-10-09T11:39:26;101640.72;;;17.80;100.00
60307;BME280;46155;52.364;6.580;2023-10-09T11:42:04;101648.13;;;17.87;100.00
60307;BME280;46155;52.364;6.580;2023-10-09T11:44:38;101645.75;;;17.93;100.00
60307;BME280;46155;52.364;6.580;2023-10-09T11:47:05;101655.69;;;17.97;100.00
60307;BME280;46155;52.364;6.580;2023-10-09T11:49:55;101653.09;;;17.99;100.00
60307;BME280;46155;52.364;6.580;2023-10-09T11:52:58;101659.44;;;18.02;100.00
60307;BME280;46155;52.364;6.580;2023-10-09T11:55:42;101646.22;;;18.04;100.00
60307;BME280;46155;52.364;6.580;2023-10-09T11:58:14;101646.09;;;18.01;100.00
60307;BME280;46155;52.364;6.580;2023-10-09T12:00:39;101651.41;;;18.01;100.00
60307;BME280;46155;52.364;6.580;2023-10-09T12:03:11;101649.59;;;18.00;100.00
60307;BME280;46155;52.364;6.580;2023-10-09T12:05:38;101654.00;;;17.99;100.00
60307;BME280;46155;52.364;6.580;2023-10-09T12:08:08;101666.53;;;18.02;100.00
60307;BME280;46155;52.364;6.580;2023-10-09T12:10:34;101664.75;;;18.02;100.00
60307;BME280;46155;52.364;6.580;2023-10-09T12:13:03;101665.66;;;18.03;100.00
60307;BME280;46155;52.364;6.580;2023-10-09T12:15:30;101665.28;;;17.94;100.00
60307;BME280;46155;52.364;6.580;2023-10-09T12:18:04;101668.34;;;17.83;100.00
60307;BME280;46155;52.364;6.580;2023-10-09T12:20:32;101666.50;;;17.82;100.00
60307;BME280;46155;52.364;6.580;2023-10-09T12:23:02;101663.91;;;17.84;100.00
60307;BME280;46155;52.364;6.580;2023-10-09T12:25:32;101663.84;;;17.82;100.00
60307;BME280;46155;52.364;6.580;2023-10-09T12:27:59;101652.22;;;17.80;100.00
60307;BME280;46155;52.364;6.580;2023-10-09T12:30:27;101648.75;;;17.81;100.00
60307;BME280;46155;52.364;6.580;2023-10-09T12:32:54;101645.13;;;17.79;100.00
60307;BME280;46155;52.364;6.580;2023-10-09T12:35:20;101655.06;;;17.83;100.00
60307;BME280;46155;52.364;6.580;2023-10-09T12:37:46;101647.22;;;17.86;100.00
60307;BME280;46155;52.364;6.580;2023-10-09T12:40:12;101647.91;;;17.82;100.00
60307;BME280;46155;52.364;6.580;2023-10-09T12:42:38;101660.38;;;17.83;100.00
60307;BME280;46155;52.364;6.580;2023-10-09T12:45:03;101647.09;;;17.83;100.00
60307;BME280;46155;52.364;6.580;2023-10-09T12:47:35;101645.84;;;17.95;100.00
60307;BME280;46155;52.364;6.580;2023-10-09T12:50:04;101639.59;;;17.94;100.00
60307;BME280;46155;52.364;6.580;2023-10-09T12:52:35;101636.88;;;17.93;100.00
60307;BME280;46155;52.364;6.580;2023-10-09T12:55:03;101631.69;;;17.96;100.00
60307;BME280;46155;52.364;6.580;2023-10-09T12:57:33;101628.47;;;18.03;100.00
60307;BME280;46155;52.364;6.580;2023-10-09T12:59:58;101620.72;;;18.08;100.00
60307;BME280;46155;52.364;6.580;2023-10-09T13:02:24;101624.34;;;18.10;100.00
60307;BME280;46155;52.364;6.580;2023-10-09T13:04:56;101630.34;;;18.05;100.00
60307;BME280;46155;52.364;6.580;2023-10-09T13:07:22;101637.69;;;18.11;100.00
60307;BME280;46155;52.364;6.580;2023-10-09T13:09:50;101629.00;;;18.15;100.00
60307;BME280;46155;52.364;6.580;2023-10-09T13:12:34;101635.22;;;18.16;100.00
60307;BME280;46155;52.364;6.580;2023-10-09T13:15:06;101634.56;;;18.21;100.00
60307;BME280;46155;52.364;6.580;2023-10-09T13:17:38;101634.56;;;18.21;100.00
60307;BME280;46155;52.364;6.580;2023-10-09T13:20:04;101645.38;;;18.24;100.00
60307;BME280;46155;52.364;6.580;2023-10-09T13:22:39;101635.69;;;18.27;100.00
60307;BME280;46155;52.364;6.580;2023-10-09T13:25:07;101636.09;;;18.36;100.00
60307;BME280;46155;52.364;6.580;2023-10-09T13:27:32;101640.69;;;18.40;100.00
60307;BME280;46155;52.364;6.580;2023-10-09T13:30:02;101638.16;;;18.43;100.00
60307;BME280;46155;52.364;6.580;2023-10-09T13:32:31;101633.81;;;18.45;100.00
60307;BME280;46155;52.364;6.580;2023-10-09T13:35:01;101635.94;;;18.54;100.00
60307;BME280;46155;52.364;6.580;2023-10-09T13:37:28;101636.91;;;18.56;100.00
60307;BME280;46155;52.364;6.580;2023-10-09T13:39:56;101632.63;;;18.59;100.00
60307;BME280;46155;52.364;6.580;2023-10-09T13:42:22;101642.72;;;18.68;100.00
60307;BME280;46155;52.364;6.580;2023-10-09T13:44:51;101639.34;;;18.72;100.00
60307;BME280;46155;52.364;6.580;2023-10-09T13:47:19;101628.00;;;18.76;100.00
60307;BME280;46155;52.364;6.580;2023-10-09T13:49:48;101626.00;;;18.71;100.00
60307;BME280;46155;52.364;6.580;2023-10-09T13:52:16;101629.91;;;18.58;100.00
60307;BME280;46155;52.364;6.580;2023-10-09T13:54:44;101640.53;;;18.58;100.00
60307;BME280;46155;52.364;6.580;2023-10-09T13:57:13;101639.59;;;18.56;100.00
60307;BME280;46155;52.364;6.580;2023-10-09T13:59:42;101635.88;;;18.52;100.00
60307;BME280;46155;52.364;6.580;2023-10-09T14:02:09;101638.53;;;18.52;100.00
60307;BME280;46155;52.364;6.580;2023-10-09T14:04:35;101636.66;;;18.50;100.00
60307;BME280;46155;52.364;6.580;2023-10-09T14:07:00;101647.50;;;18.54;100.00
60307;BME280;46155;52.364;6.580;2023-10-09T14:09:28;101640.94;;;18.46;100.00
60307;BME280;46155;52.364;6.580;2023-10-09T14:12:00;101642.50;;;18.41;100.00
60307;BME280;46155;52.364;6.580;2023-10-09T14:14:39;101636.22;;;18.39;100.00
60307;BME280;46155;52.364;6.580;2023-10-09T14:17:14;101637.06;;;18.38;100.00
60307;BME280;46155;52.364;6.580;2023-10-09T14:19:43;101636.81;;;18.32;100.00
60307;BME280;46155;52.364;6.580;2023-10-09T14:22:20;101639.66;;;18.36;100.00
60307;BME280;46155;52.364;6.580;2023-10-09T14:24:47;101636.28;;;18.40;100.00
60307;BME280;46155;52.364;6.580;2023-10-09T14:27:14;101640.53;;;18.37;100.00
60307;BME280;46155;52.364;6.580;2023-10-09T14:29:48;101648.28;;;18.31;100.00
60307;BME280;46155;52.364;6.580;2023-10-09T14:32:15;101648.09;;;18.26;100.00
60307;BME280;46155;52.364;6.580;2023-10-09T14:34:41;101643.53;;;18.23;100.00
60307;BME280;46155;52.364;6.580;2023-10-09T14:37:19;101643.66;;;18.27;100.00
60307;BME280;46155;52.364;6.580;2023-10-09T14:39:45;101640.16;;;18.28;100.00
60307;BME280;46155;52.364;6.580;2023-10-09T14:42:17;101644.97;;;18.36;100.00
60307;BME280;46155;52.364;6.580;2023-10-09T14:44:43;101644.91;;;18.35;100.00
60307;BME280;46155;52.364;6.580;2023-10-09T14:47:10;101636.81;;;18.32;100.00
60307;BME280;46155;52.364;6.580;2023-10-09T14:49:36;101634.63;;;18.44;100.00
60307;BME280;46155;52.364;6.580;2023-10-09T14:52:09;101639.84;;;18.41;100.00
60307;BME280;46155;52.364;6.580;2023-10-09T14:54:35;101639.66;;;18.36;100.00
60307;BME280;46155;52.364;6.580;2023-10-09T14:57:00;101643.19;;;18.37;100.00
60307;BME280;46155;52.364;6.580;2023-10-09T14:59:26;101643.06;;;18.34;100.00
60307;BME280;46155;52.364;6.580;2023-10-09T15:01:51;101639.41;;;18.30;100.00
60307;BME280;46155;52.364;6.580;2023-10-09T15:04:19;101642.13;;;18.32;100.00
60307;BME280;46155;52.364;6.580;2023-10-09T15:06:46;101640.28;;;18.31;100.00
60307;BME280;46155;52.364;6.580;2023-10-09T15:09:14;101641.06;;;18.28;100.00
60307;BME280;46155;52.364;6.580;2023-10-09T15:11:48;101640.16;;;18.28;100.00
60307;BME280;46155;52.364;6.580;2023-10-09T15:14:16;101642.84;;;18.28;100.00
60307;BME280;46155;52.364;6.580;2023-10-09T15:16:44;101640.03;;;18.24;100.00
60307;BME280;46155;52.364;6.580;2023-10-09T15:19:09;101641.91;;;18.27;100.00
60307;BME280;46155;52.364;6.580;2023-10-09T15:21:37;101634.72;;;18.24;100.00
60307;BME280;46155;52.364;6.580;2023-10-09T15:24:09;101640.03;;;18.24;100.00
60307;BME280;46155;52.364;6.580;2023-10-09T15:26:35;101641.84;;;18.26;100.00
60307;BME280;46155;52.364;6.580;2023-10-09T15:29:01;101645.19;;;18.21;100.00
60307;BME280;46155;52.364;6.580;2023-10-09T15:31:29;101645.19;;;18.21;100.00
60307;BME280;46155;52.364;6.580;2023-10-09T15:33:56;101644.19;;;18.18;100.00
60307;BME280;46155;52.364;6.580;2023-10-09T15:36:22;101648.59;;;18.17;100.00
60307;BME280;46155;52.364;6.580;2023-10-09T15:38:54;101642.28;;;18.15;100.00
60307;BME280;46155;52.364;6.580;2023-10-09T15:41:19;101643.28;;;18.17;100.00
60307;BME280;46155;52.364;6.580;2023-10-09T15:43:46;101643.41;;;18.20;100.00
60307;BME280;46155;52.364;6.580;2023-10-09T15:46:13;101643.41;;;18.20;100.00
60307;BME280;46155;52.364;6.580;2023-10-09T15:48:44;101645.19;;;18.21;100.00
60307;BME280;46155;52.364;6.580;2023-10-09T15:51:12;101653.75;;;18.14;100.00
60307;BME280;46155;52.364;6.580;2023-10-09T15:53:42;101644.94;;;18.15;100.00
60307;BME280;46155;52.364;6.580;2023-10-09T15:56:08;101641.34;;;18.13;100.00
60307;BME280;46155;52.364;6.580;2023-10-09T15:58:35;101647.41;;;18.11;100.00
60307;BME280;46155;52.364;6.580;2023-10-09T16:01:00;101652.38;;;18.03;100.00
60307;BME280;46155;52.364;6.580;2023-10-09T16:03:25;101659.66;;;18.07;100.00
60307;BME280;46155;52.364;6.580;2023-10-09T16:05:52;101651.69;;;18.07;100.00
60307;BME280;46155;52.364;6.580;2023-10-09T16:08:18;101650.72;;;18.05;100.00
60307;BME280;46155;52.364;6.580;2023-10-09T16:10:45;101660.34;;;18.03;100.00
60307;BME280;46155;52.364;6.580;2023-10-09T16:13:12;101659.72;;;18.09;100.00
60307;BME280;46155;52.364;6.580;2023-10-09T16:15:41;101663.22;;;18.08;100.00
60307;BME280;46155;52.364;6.580;2023-10-09T16:18:08;101664.06;;;18.06;100.00
60307;BME280;46155;52.364;6.580;2023-10-09T16:20:33;101665.66;;;18.03;100.00
60307;BME280;46155;52.364;6.580;2023-10-09T16:22:59;101670.91;;;18.01;100.00
60307;BME280;46155;52.364;6.580;2023-10-09T16:25:27;101668.13;;;17.98;100.00
60307;BME280;46155;52.364;6.580;2023-10-09T16:27:53;101670.72;;;17.97;100.00
60307;BME280;46155;52.364;6.580;2023-10-09T16:30:21;101669.03;;;17.99;100.00